Abingdon, VA

12:54 AM EDT on November 01, 2014 (GMT -0400)
Country Club Estates | Change Station
CLOSE
Current Station
Personal Weather Station
Location: Abingdon, VA
Elevation: 1990 ft
Nearby Weather Stations
Active Advisory: Winter Storm Warning

Elev 1990 ft 36.69 °N, 81.97 °W | Updated 3 seconds ago

Snow
Snow
33.9 °F
Feels Like 31 °F
N
3.5
Wind Variable Wind from West
Gusts 3.5 mph

Today
High -- | Low -- °F
--% Chance of Precip.
Yesterday
High -- | Low -- °F
Precip. -- in
7:51 AM 6:30 PM
Waxing Gibbous, 62% visible
Pressure 29.85 in
Visibility 4.0 miles
Clouds Overcast 1400 ft
Windchill 31 °F
Dew Point 32 °F
Humidity 93%
Rainfall 0.00 in
Snow Depth Not available.
UV 0 out of 12
Pollen .10 out of 12
Air Quality Not available.
Flu Activity Not available.
METAR KVJI 010435Z AUTO 29005KT 4SM -SN OVC014 02/01 A2985 RMK AO2 T00240007

More Conditions Fewer Conditions

Pressure 29.85 in
Visibility 4.0 miles
Clouds Overcast 1400 ft
Windchill 31 °F
Dew Point 32 °F
Humidity 93%
Rainfall 0.00 in
Snow Depth Not available.
UV 0 out of 12
Pollen .10 out of 12
Air Quality Not available.
Flu Activity Not available.
METAR KVJI 010435Z AUTO 29005KT 4SM -SN OVC014 02/01 A2985 RMK AO2 T00240007

More Conditions Fewer Conditions

10-Day Weather Forecast

Almanac

Astronomy

Nov. 01, 2014 Rise Set
Actual Time
Civil Twilight
Nautical Twilight
Astronomical Twilight
Moon
Length of Visible Light
Length of Day
Tomorrow will be .
, % of the Moon is Illuminated

Today's Extremes

State Highs State Lows

Community

WunderPhotos

Upload Photos

1,766,854 photos uploaded!

WunderBlogs® & News

Nearby

Air Quality

  Air Quality AQ Index Pollutant
Not available.

Snow Depth

Station Depth Elevation

Earthquake Activity

City Distance Mag. Time & Date
Minimum magnitude displayed is 2.5.

Coastal Water Temperatures

Place Temperature

Nearby Weather Stations